Time;durP1;ratioP1;P1;durP2;ratioP2;P2;SDS_P1;SDS_P2;PMS_P1;PMS_P2;Temp;Humidity;BMP_temperature;BMP_pressure;BME280_temperature;BME280_humidity;BME280_pressure;Samples;Min_cycle;Max_cycle;Signal;HPM_P1;HPM_P2
2023/01/08 00:00:53;;;;;;;;;;;;;;;9.59;90.76;100282.19;5083760;28;19916;-61
2023/01/08 00:03:19;;;;;;;;;;;;;;;9.58;90.91;100285.84;5084883;28;20008;-60
2023/01/08 00:05:44;;;;;;;;;;;;;;;9.59;90.76;100289.31;5094210;28;20011;-61
2023/01/08 00:08:09;;;;;;;;;;;;;;;9.59;90.52;100282.19;5097983;28;19916;-62
2023/01/08 00:10:35;;;;;;;;;;;;;;;9.60;90.82;100283.81;5082998;28;19950;-62
2023/01/08 00:13:00;;;;;;;;;;;;;;;9.60;90.64;100285.66;5081346;28;19916;-62
2023/01/08 00:15:25;;;;;;;;;;;;;;;9.60;90.38;100291.78;5086042;28;20356;-60
2023/01/08 00:17:51;;;;;;;;;;;;;;;9.59;90.33;100294.59;5081786;28;19912;-61
2023/01/08 00:20:16;;;;;;;;;;;;;;;9.60;90.40;100304.22;5081060;28;19916;-64
2023/01/08 00:22:41;;;;;;;;;;;;;;;9.59;90.21;100290.13;5091924;28;19916;-60
2023/01/08 00:25:06;;;;;;;;;;;;;;;9.59;90.15;100276.06;5087731;28;19927;-61
2023/01/08 00:27:32;;;;;;;;;;;;;;;9.59;90.22;100282.19;5080781;28;19916;-63
2023/01/08 00:29:57;;;;;;;;;;;;;;;9.57;90.30;100270.94;5086772;28;20430;-61
2023/01/08 00:32:22;;;;;;;;;;;;;;;9.58;89.94;100267.28;5082312;28;19916;-62
2023/01/08 00:34:47;;;;;;;;;;;;;;;9.58;90.14;100263.81;5085006;28;20392;-61
2023/01/08 00:37:13;;;;;;;;;;;;;;;9.58;90.01;100261.97;5094690;28;19915;-61
2023/01/08 00:39:39;;;;;;;;;;;;;;;9.58;89.68;100259.31;5079842;28;19912;-61
2023/01/08 00:42:04;;;;;;;;;;;;;;;9.56;89.88;100253.38;5075402;28;20021;-61
2023/01/08 00:44:29;;;;;;;;;;;;;;;9.56;89.65;100242.78;5089517;28;19942;-61
2023/01/08 00:46:54;;;;;;;;;;;;;;;9.52;89.61;100240.63;5079216;28;19923;-62
2023/01/08 00:49:19;;;;;;;;;;;;;;;9.50;89.66;100243.47;5075361;28;19963;-61
2023/01/08 00:51:44;;;;;;;;;;;;;;;9.48;90.06;100240.16;5084268;28;19930;-63
2023/01/08 00:54:10;;;;;;;;;;;;;;;9.47;89.85;100241.16;5078835;28;19924;-61
2023/01/08 00:56:35;;;;;;;;;;;;;;;9.46;89.73;100242.19;5073260;28;20306;-61
2023/01/08 00:59:00;;;;;;;;;;;;;;;9.45;90.01;100239.69;5084489;28;19917;-61
2023/01/08 01:01:25;;;;;;;;;;;;;;;9.44;89.97;100230.94;5084071;28;19916;-61
2023/01/08 01:03:51;;;;;;;;;;;;;;;9.44;90.32;100230.94;5081387;28;21573;-61
2023/01/08 01:06:16;;;;;;;;;;;;;;;9.44;90.10;100238.06;5083693;28;19915;-64
2023/01/08 01:08:43;;;;;;;;;;;;;;;9.43;89.96;100231.09;5075966;28;19930;-62
2023/01/08 01:11:09;;;;;;;;;;;;;;;9.41;90.52;100231.28;5083474;28;19985;-60
2023/01/08 01:13:34;;;;;;;;;;;;;;;9.42;90.19;100222.34;5083114;28;19931;-61
2023/01/08 01:16:00;;;;;;;;;;;;;;;9.42;90.55;100224.16;5079103;28;19912;-61
2023/01/08 01:18:25;;;;;;;;;;;;;;;9.43;90.50;100226.63;5082545;28;19967;-61
2023/01/08 01:20:51;;;;;;;;;;;;;;;9.41;90.68;100226.00;5093239;28;19916;-61
2023/01/08 01:23:16;;;;;;;;;;;;;;;9.43;90.75;100213.38;5085165;28;20392;-61
2023/01/08 01:25:41;;;;;;;;;;;;;;;9.42;90.55;100227.63;5082948;28;20006;-61
2023/01/08 01:28:06;;;;;;;;;;;;;;;9.46;90.62;100212.19;5084372;28;20307;-62
2023/01/08 01:30:31;;;;;;;;;;;;;;;9.47;90.88;100212.00;5078350;28;20412;-61
2023/01/08 01:32:56;;;;;;;;;;;;;;;9.47;90.57;100211.19;5092322;28;20102;-59
2023/01/08 01:35:22;;;;;;;;;;;;;;;9.47;90.79;100209.38;5093245;28;20371;-62
2023/01/08 01:37:47;;;;;;;;;;;;;;;9.49;90.51;100212.66;5081022;28;19930;-61
2023/01/08 01:40:12;;;;;;;;;;;;;;;9.51;90.73;100204.53;5076654;28;20400;-60
2023/01/08 01:42:40;;;;;;;;;;;;;;;9.51;90.66;100212.47;5080467;28;19920;-61
2023/01/08 01:45:35;;;;;;;;;;;;;;;9.50;90.41;100216.97;5083138;28;19920;-60
2023/01/08 01:48:12;;;;;;;;;;;;;;;9.48;90.52;100211.00;5068993;28;19923;-62
2023/01/08 01:50:47;;;;;;;;;;;;;;;9.51;90.74;100221.25;5077314;28;19974;-61
2023/01/08 01:53:30;;;;;;;;;;;;;;;9.50;90.74;100224.91;5079630;28;19924;-62
2023/01/08 01:55:56;;;;;;;;;;;;;;;9.51;90.60;100212.47;5081528;28;20348;-60
2023/01/08 01:58:22;;;;;;;;;;;;;;;9.51;90.74;100218.59;5095314;28;20018;-60
2023/01/08 02:00:48;;;;;;;;;;;;;;;9.52;90.75;100212.28;5082418;28;19920;-60
2023/01/08 02:03:14;;;;;;;;;;;;;;;9.50;90.98;100205.53;5075950;28;19924;-61
2023/01/08 02:05:39;;;;;;;;;;;;;;;9.48;90.80;100220.78;5079795;28;19916;-62
2023/01/08 02:08:08;;;;;;;;;;;;;;;9.49;90.46;100212.66;5075908;28;19920;-61
2023/01/08 02:10:41;;;;;;;;;;;;;;;9.47;90.17;100217.31;5080033;28;19938;-61
2023/01/08 02:13:09;;;;;;;;;;;;;;;9.44;89.80;100217.69;5086690;28;19923;-60
2023/01/08 02:15:55;;;;;;;;;;;;;;;9.39;89.36;100206.78;5082524;28;19920;-60
2023/01/08 02:18:40;;;;;;;;;;;;;;;9.17;88.55;100215.56;5079365;28;19917;-60
2023/01/08 02:21:10;;;;;;;;;;;;;;;9.02;88.14;100214.69;5074324;28;19927;-61
2023/01/08 02:23:45;;;;;;;;;;;;;;;8.87;87.51;100186.31;5088152;28;19921;-63
2023/01/08 02:26:13;;;;;;;;;;;;;;;8.82;87.07;100188.66;5079714;28;19916;-61
2023/01/08 02:28:41;;;;;;;;;;;;;;;8.76;87.06;100205.25;5089431;28;19920;-61
2023/01/08 02:31:06;;;;;;;;;;;;;;;8.70;86.78;100200.66;5089405;28;19997;-61
2023/01/08 02:33:31;;;;;;;;;;;;;;;8.63;86.40;100192.56;5089123;28;19971;-61
2023/01/08 02:36:09;;;;;;;;;;;;;;;8.58;86.38;100194.09;5087797;28;19966;-62
2023/01/08 02:38:35;;;;;;;;;;;;;;;8.52;86.37;100186.84;5106367;27;19924;-60
2023/01/08 02:41:06;;;;;;;;;;;;;;;8.46;86.38;100182.25;5088395;28;20318;-61
2023/01/08 02:43:36;;;;;;;;;;;;;;;8.41;86.66;100201.31;5080869;28;19924;-60
2023/01/08 02:46:02;;;;;;;;;;;;;;;8.38;86.41;100202.47;5089131;28;20390;-60
2023/01/08 02:48:35;;;;;;;;;;;;;;;8.36;86.74;100209.72;5087818;28;20739;-61
2023/01/08 02:51:10;;;;;;;;;;;;;;;8.35;87.06;100197.50;5093487;28;19916;-61
2023/01/08 02:53:38;;;;;;;;;;;;;;;8.32;87.41;100202.28;5082660;28;19973;-61
2023/01/08 02:56:05;;;;;;;;;;;;;;;8.31;87.21;100206.75;5084416;28;19920;-61
2023/01/08 02:58:32;;;;;;;;;;;;;;;8.27;87.55;100210.72;5086603;28;20394;-61
2023/01/08 03:00:58;;;;;;;;;;;;;;;8.26;87.40;100211.72;5090805;28;19925;-61
2023/01/08 03:03:27;;;;;;;;;;;;;;;8.21;87.69;100203.47;5091640;28;19922;-61
2023/01/08 03:05:55;;;;;;;;;;;;;;;8.17;88.06;100204.00;5084979;28;19916;-62
2023/01/08 03:08:20;;;;;;;;;;;;;;;8.13;88.40;100198.22;5089332;28;20338;-60
2023/01/08 03:10:49;;;;;;;;;;;;;;;8.10;88.68;100203.03;5086525;28;19928;-59
2023/01/08 03:13:17;;;;;;;;;;;;;;;8.05;89.00;100203.53;5080273;28;19916;-60
2023/01/08 03:15:47;;;;;;;;;;;;;;;8.00;89.50;100197.94;5088127;28;19955;-60
2023/01/08 03:18:14;;;;;;;;;;;;;;;7.96;89.91;100196.63;5077512;28;20007;-61
2023/01/08 03:20:39;;;;;;;;;;;;;;;7.91;90.17;100194.47;5087846;28;20442;-60
2023/01/08 03:23:06;;;;;;;;;;;;;;;7.89;90.34;100200.94;5091593;28;20003;-62
2023/01/08 03:25:33;;;;;;;;;;;;;;;7.87;91.08;100197.63;5088484;28;19916;-61
2023/01/08 03:28:01;;;;;;;;;;;;;;;7.86;91.31;100196.00;5085130;28;19965;-62
2023/01/08 03:30:28;;;;;;;;;;;;;;;7.86;91.57;100190.69;5084068;28;19916;-60
2023/01/08 03:32:56;;;;;;;;;;;;;;;7.85;91.38;100189.06;5083629;28;19913;-60
2023/01/08 03:35:22;;;;;;;;;;;;;;;7.84;91.57;100187.41;5097427;28;20304;-62
2023/01/08 03:37:51;;;;;;;;;;;;;;;7.81;92.09;100178.00;5094707;28;19915;-61
2023/01/08 03:40:19;;;;;;;;;;;;;;;7.82;91.71;100179.66;5085769;28;20011;-61
2023/01/08 03:42:45;;;;;;;;;;;;;;;7.81;91.80;100183.28;5081957;28;19955;-61
2023/01/08 03:45:10;;;;;;;;;;;;;;;7.80;91.80;100186.91;5078550;28;20005;-60
2023/01/08 03:47:37;;;;;;;;;;;;;;;7.80;92.10;100183.44;5086082;28;20003;-61
2023/01/08 03:50:06;;;;;;;;;;;;;;;7.77;92.45;100176.66;5089089;28;19919;-61
2023/01/08 03:52:31;;;;;;;;;;;;;;;7.76;92.21;100175.00;5083898;28;20402;-61
2023/01/08 03:54:57;;;;;;;;;;;;;;;7.75;92.71;100173.38;5087458;28;20003;-60
2023/01/08 03:57:22;;;;;;;;;;;;;;;7.75;92.91;100166.25;5080380;28;19999;-61
2023/01/08 03:59:47;;;;;;;;;;;;;;;7.78;92.61;100154.53;5089050;28;19933;-63
2023/01/08 04:02:13;;;;;;;;;;;;;;;7.77;92.88;100158.97;5085149;28;19920;-61
2023/01/08 04:04:38;;;;;;;;;;;;;;;7.81;93.18;100161.31;5099436;28;19939;-62
2023/01/08 04:07:03;;;;;;;;;;;;;;;7.82;93.22;100160.31;5073719;28;19916;-61
2023/01/08 04:09:28;;;;;;;;;;;;;;;7.85;93.38;100159.97;5088417;28;20395;-61
2023/01/08 04:11:53;;;;;;;;;;;;;;;7.90;92.94;100149.72;5077849;28;20292;-58
2023/01/08 04:14:19;;;;;;;;;;;;;;;7.91;93.16;100144.25;5079082;28;20012;-60
2023/01/08 04:16:44;;;;;;;;;;;;;;;7.92;93.16;100129.22;5071733;28;19939;-63
2023/01/08 04:19:12;;;;;;;;;;;;;;;7.91;92.76;100135.50;5076979;28;19924;-61
2023/01/08 04:21:38;;;;;;;;;;;;;;;7.90;92.89;100134.69;5079707;28;19912;-61
2023/01/08 04:24:03;;;;;;;;;;;;;;;7.88;92.76;100135.84;5080102;28;20050;-61
2023/01/08 04:26:28;;;;;;;;;;;;;;;7.88;93.04;100143.78;5080365;28;19920;-62
2023/01/08 04:28:53;;;;;;;;;;;;;;;7.85;92.91;100144.94;5085032;28;19945;-61
2023/01/08 04:31:19;;;;;;;;;;;;;;;7.85;93.27;100154.69;5076830;28;20304;-60
2023/01/08 04:33:44;;;;;;;;;;;;;;;7.82;93.25;100155.84;5081019;28;20014;-61
2023/01/08 04:36:09;;;;;;;;;;;;;;;7.80;93.36;100141.13;5076024;28;20370;-61
2023/01/08 04:38:34;;;;;;;;;;;;;;;7.78;93.38;100139.50;5082189;28;19958;-61
2023/01/08 04:41:00;;;;;;;;;;;;;;;7.81;93.74;100143.63;5073437;28;19923;-61
2023/01/08 04:43:26;;;;;;;;;;;;;;;7.82;93.91;100137.34;5077977;28;19920;-63
2023/01/08 04:45:51;;;;;;;;;;;;;;;7.84;94.17;100139.81;5078855;28;19916;-63
2023/01/08 04:48:16;;;;;;;;;;;;;;;7.86;94.21;100133.38;5086486;28;20299;-63
2023/01/08 04:50:41;;;;;;;;;;;;;;;7.87;94.37;100129.72;5082292;28;20007;-61
2023/01/08 04:53:07;;;;;;;;;;;;;;;7.87;94.17;100123.63;5081465;28;19920;-61
2023/01/08 04:55:32;;;;;;;;;;;;;;;7.87;93.97;100128.91;5082863;28;20593;-62
2023/01/08 04:57:57;;;;;;;;;;;;;;;7.86;94.31;100132.56;5088285;28;19990;-61
2023/01/08 05:00:22;;;;;;;;;;;;;;;7.86;94.25;100129.91;5072594;28;19928;-61
2023/01/08 05:02:47;;;;;;;;;;;;;;;7.85;93.70;100137.00;5080450;28;20426;-63
2023/01/08 05:05:13;;;;;;;;;;;;;;;7.85;93.47;100139.66;5081220;28;19931;-61
2023/01/08 05:07:38;;;;;;;;;;;;;;;7.85;93.42;100136.19;5075742;28;20556;-61
2023/01/08 05:10:03;;;;;;;;;;;;;;;7.88;93.08;100141.13;5074644;28;20360;-61
2023/01/08 05:12:28;;;;;;;;;;;;;;;7.86;93.04;100138.66;5080140;28;19916;-60
2023/01/08 05:14:53;;;;;;;;;;;;;;;7.84;93.02;100130.06;5081118;28;20323;-59
2023/01/08 05:17:19;;;;;;;;;;;;;;;7.86;93.07;100136.00;5079032;28;19913;-61
2023/01/08 05:19:44;;;;;;;;;;;;;;;7.84;93.01;100123.97;5076174;28;20328;-63
2023/01/08 05:22:09;;;;;;;;;;;;;;;7.84;92.63;100119.50;5083191;28;19916;-61
2023/01/08 05:24:34;;;;;;;;;;;;;;;7.83;92.84;100123.16;5081983;28;19977;-61
2023/01/08 05:26:59;;;;;;;;;;;;;;;7.82;92.46;100120.66;5082702;28;19963;-61
2023/01/08 05:29:24;;;;;;;;;;;;;;;7.80;92.70;100123.47;5081751;28;19931;-60
2023/01/08 05:31:50;;;;;;;;;;;;;;;7.81;92.12;100119.03;5077765;28;19916;-60
2023/01/08 05:34:15;;;;;;;;;;;;;;;7.82;92.01;100124.13;5098720;28;19927;-63
2023/01/08 05:36:40;;;;;;;;;;;;;;;7.82;92.02;100116.22;5073364;28;19920;-62
2023/01/08 05:39:05;;;;;;;;;;;;;;;7.82;91.76;100112.75;5083056;28;19923;-61
2023/01/08 05:41:30;;;;;;;;;;;;;;;7.80;91.51;100109.41;5077447;28;20497;-60
2023/01/08 05:43:56;;;;;;;;;;;;;;;7.78;91.11;100109.59;5079351;28;19934;-61
2023/01/08 05:46:21;;;;;;;;;;;;;;;7.78;90.95;100110.41;5077418;28;19912;-61
2023/01/08 05:48:46;;;;;;;;;;;;;;;7.78;90.52;100110.41;5075306;28;20040;-62
2023/01/08 05:51:11;;;;;;;;;;;;;;;7.75;89.81;100110.75;5077747;28;19916;-61
2023/01/08 05:53:36;;;;;;;;;;;;;;;7.72;89.85;100105.00;5080064;28;20049;-60
2023/01/08 05:56:03;;;;;;;;;;;;;;;7.69;89.24;100107.97;5086267;28;19925;-61
2023/01/08 05:58:28;;;;;;;;;;;;;;;7.66;89.19;100110.97;5073761;28;19924;-61
2023/01/08 06:00:54;;;;;;;;;;;;;;;7.62;88.80;100109.66;5076889;28;19916;-61
2023/01/08 06:03:22;;;;;;;;;;;;;;;7.57;88.44;100112.81;5085644;28;20398;-61
2023/01/08 06:05:47;;;;;;;;;;;;;;;7.52;88.44;100115.13;5076783;28;19920;-60
2023/01/08 06:08:13;;;;;;;;;;;;;;;7.48;88.13;100116.44;5081333;28;19923;-61
2023/01/08 06:10:38;;;;;;;;;;;;;;;7.44;88.09;100112.50;5081533;28;19923;-61
2023/01/08 06:13:07;;;;;;;;;;;;;;;7.40;87.62;100127.03;5070551;28;20010;-61
2023/01/08 06:15:32;;;;;;;;;;;;;;;7.39;87.82;100131.50;5072843;28;19916;-61
2023/01/08 06:18:01;;;;;;;;;;;;;;;7.38;87.89;100126.38;5074023;28;19966;-61
2023/01/08 06:20:26;;;;;;;;;;;;;;;7.37;87.61;100137.94;5080439;28;20384;-61
2023/01/08 06:22:52;;;;;;;;;;;;;;;7.33;87.66;100134.81;5078577;28;19923;-61
2023/01/08 06:25:17;;;;;;;;;;;;;;;7.30;87.50;100143.06;5084426;28;19920;-60
2023/01/08 06:27:42;;;;;;;;;;;;;;;7.29;87.59;100140.59;5081660;28;21170;-61
2023/01/08 06:30:08;;;;;;;;;;;;;;;7.24;87.53;100141.09;5076591;28;19920;-62
2023/01/08 06:32:33;;;;;;;;;;;;;;;7.20;87.61;100150.31;5084953;28;19916;-59
2023/01/08 06:34:58;;;;;;;;;;;;;;;7.17;87.59;100158.56;5078639;28;19927;-61
2023/01/08 06:37:23;;;;;;;;;;;;;;;7.11;87.33;100160.06;5082365;28;19961;-60
2023/01/08 06:39:48;;;;;;;;;;;;;;;7.08;87.40;100151.66;5084624;28;19916;-61
2023/01/08 06:42:14;;;;;;;;;;;;;;;7.07;87.56;100152.63;5082905;28;19912;-60
2023/01/08 06:44:39;;;;;;;;;;;;;;;7.04;87.62;100156.44;5077185;28;20590;-61
2023/01/08 06:47:04;;;;;;;;;;;;;;;7.05;87.39;100160.72;5078370;28;19916;-62
2023/01/08 06:49:29;;;;;;;;;;;;;;;7.05;87.52;100152.81;5068033;28;19924;-63
2023/01/08 06:51:56;;;;;;;;;;;;;;;7.02;87.30;100144.38;5073939;28;20397;-61
2023/01/08 06:54:21;;;;;;;;;;;;;;;7.00;87.60;100162.22;5083454;28;19927;-61
2023/01/08 06:56:47;;;;;;;;;;;;;;;6.98;87.57;100165.00;5080107;28;19916;-61
2023/01/08 06:59:12;;;;;;;;;;;;;;;6.94;87.16;100157.56;5079822;28;19921;-64
2023/01/08 07:01:37;;;;;;;;;;;;;;;6.91;87.40;100169.28;5075829;28;19920;-61
2023/01/08 07:04:03;;;;;;;;;;;;;;;6.88;87.37;100166.97;5080176;28;19924;-62
2023/01/08 07:06:28;;;;;;;;;;;;;;;6.83;87.63;100151.63;5081425;28;19916;-64
2023/01/08 07:08:53;;;;;;;;;;;;;;;6.77;88.09;100152.28;5080445;28;19967;-62
2023/01/08 07:11:18;;;;;;;;;;;;;;;6.72;88.12;100146.66;5087886;28;19923;-60
2023/01/08 07:13:43;;;;;;;;;;;;;;;6.71;88.39;100144.19;5087040;28;19959;-61
2023/01/08 07:16:10;;;;;;;;;;;;;;;6.72;88.47;100143.22;5081716;28;20403;-60
2023/01/08 07:18:36;;;;;;;;;;;;;;;6.72;88.33;100145.84;5084319;28;21175;-61
2023/01/08 07:21:02;;;;;;;;;;;;;;;6.69;88.72;100139.09;5077241;28;20006;-62
2023/01/08 07:23:27;;;;;;;;;;;;;;;6.68;88.46;100136.59;5084070;28;19926;-63
2023/01/08 07:25:52;;;;;;;;;;;;;;;6.69;88.63;100131.16;5087483;28;19919;-61
2023/01/08 07:28:17;;;;;;;;;;;;;;;6.68;88.70;100136.59;5093388;28;19916;-60
2023/01/08 07:30:43;;;;;;;;;;;;;;;6.68;88.46;100139.25;5085559;28;20011;-61
2023/01/08 07:33:08;;;;;;;;;;;;;;;6.65;88.53;100143.03;5078961;28;20264;-61
2023/01/08 07:35:34;;;;;;;;;;;;;;;6.64;88.39;100143.16;5088216;28;19978;-61
2023/01/08 07:37:59;;;;;;;;;;;;;;;6.61;88.25;100141.69;5104832;28;19911;-61
2023/01/08 07:40:24;;;;;;;;;;;;;;;6.56;88.38;100151.91;5080248;28;20556;-63
2023/01/08 07:42:56;;;;;;;;;;;;;;;6.55;88.42;100146.78;5080551;28;19950;-63
2023/01/08 07:45:22;;;;;;;;;;;;;;;6.52;88.53;100142.66;5081868;28;19919;-62
2023/01/08 07:47:47;;;;;;;;;;;;;;;6.47;88.30;100144.97;5079372;28;19928;-60
2023/01/08 07:50:12;;;;;;;;;;;;;;;6.45;88.17;100146.94;5081277;28;19949;-61
2023/01/08 07:52:37;;;;;;;;;;;;;;;6.42;88.35;100147.25;5075745;28;19995;-61
2023/01/08 07:55:02;;;;;;;;;;;;;;;6.39;88.28;100151.06;5082378;28;19924;-60
2023/01/08 07:57:28;;;;;;;;;;;;;;;6.36;88.08;100146.09;5078298;28;19924;-60
2023/01/08 07:59:53;;;;;;;;;;;;;;;6.36;88.34;100154.00;5076380;28;20024;-60
2023/01/08 08:02:18;;;;;;;;;;;;;;;6.35;88.17;100144.41;5096092;28;19920;-61
2023/01/08 08:04:43;;;;;;;;;;;;;;;6.35;88.05;100146.22;5097588;28;19922;-61
2023/01/08 08:07:10;;;;;;;;;;;;;;;6.31;88.43;100151.00;5089858;28;21299;-62
2023/01/08 08:09:35;;;;;;;;;;;;;;;6.33;88.34;100149.03;5079200;28;19953;-61
2023/01/08 08:12:01;;;;;;;;;;;;;;;6.37;88.31;100145.13;5084996;28;20015;-61
2023/01/08 08:14:26;;;;;;;;;;;;;;;6.40;88.59;100136.06;5084203;28;19920;-60
2023/01/08 08:16:51;;;;;;;;;;;;;;;6.37;88.20;100124.03;5079823;28;19964;-61
2023/01/08 08:19:17;;;;;;;;;;;;;;;6.41;88.71;100120.06;5087763;28;20374;-60
2023/01/08 08:21:42;;;;;;;;;;;;;;;6.44;88.47;100111.84;5086181;28;19934;-60
2023/01/08 08:24:07;;;;;;;;;;;;;;;6.45;88.99;100113.47;5081802;28;19944;-61
2023/01/08 08:26:32;;;;;;;;;;;;;;;6.50;88.72;100099.81;5082661;28;20561;-61
2023/01/08 08:28:57;;;;;;;;;;;;;;;6.53;88.74;100102.09;5088096;28;19942;-59
2023/01/08 08:31:22;;;;;;;;;;;;;;;6.57;88.81;100102.59;5073255;28;20007;-58
2023/01/08 08:33:48;;;;;;;;;;;;;;;6.60;88.97;100099.63;5083920;28;19946;-60
2023/01/08 08:36:13;;;;;;;;;;;;;;;6.63;89.14;100105.41;5078870;28;20007;-61
2023/01/08 08:38:38;;;;;;;;;;;;;;;6.70;88.96;100102.97;5078614;28;19916;-59
2023/01/08 08:41:04;;;;;;;;;;;;;;;6.75;89.33;100096.22;5080313;28;19941;-58
2023/01/08 08:43:29;;;;;;;;;;;;;;;6.80;89.28;100099.16;5082385;28;19963;-58
2023/01/08 08:45:55;;;;;;;;;;;;;;;6.86;89.38;100104.78;5087617;28;19951;-58
2023/01/08 08:48:20;;;;;;;;;;;;;;;6.89;89.55;100099.16;5083743;28;19923;-60
2023/01/08 08:50:45;;;;;;;;;;;;;;;6.95;89.23;100096.72;5093510;28;19915;-61
2023/01/08 08:53:11;;;;;;;;;;;;;;;7.04;89.39;100105.44;5081824;28;20387;-60
2023/01/08 08:55:36;;;;;;;;;;;;;;;7.10;89.58;100092.41;5094638;28;19912;-60
2023/01/08 08:58:11;;;;;;;;;;;;;;;7.19;89.25;100087.94;5086445;28;19912;-59
2023/01/08 09:00:41;;;;;;;;;;;;;;;7.23;88.95;100091.91;5077516;28;19927;-60
2023/01/08 09:03:09;;;;;;;;;;;;;;;7.24;88.73;100084.81;5082698;28;19916;-61
2023/01/08 09:05:34;;;;;;;;;;;;;;;7.22;88.96;100092.88;5084150;28;19977;-61
2023/01/08 09:08:00;;;;;;;;;;;;;;;7.21;88.63;100087.75;5076432;28;20300;-61
2023/01/08 09:10:25;;;;;;;;;;;;;;;7.18;88.84;100096.84;5082511;28;19919;-60
2023/01/08 09:12:52;;;;;;;;;;;;;;;7.14;88.83;100103.44;5076458;28;20582;-60
2023/01/08 09:15:17;;;;;;;;;;;;;;;7.07;88.78;100100.66;5079614;28;19927;-61
2023/01/08 09:17:42;;;;;;;;;;;;;;;7.03;89.20;100103.81;5081302;28;19912;-61
2023/01/08 09:20:07;;;;;;;;;;;;;;;6.97;89.02;100100.00;5088115;28;19959;-61
2023/01/08 09:22:32;;;;;;;;;;;;;;;6.91;89.34;100105.94;5083229;28;19962;-60
2023/01/08 09:24:58;;;;;;;;;;;;;;;6.86;89.57;100102.97;5086027;28;19923;-60
2023/01/08 09:27:23;;;;;;;;;;;;;;;6.83;89.74;100105.94;5085820;28;19923;-59
2023/01/08 09:29:48;;;;;;;;;;;;;;;6.81;89.86;100100.81;5100511;28;20556;-61
2023/01/08 09:32:13;;;;;;;;;;;;;;;6.79;90.42;100102.81;5085527;28;19913;-60
2023/01/08 09:34:39;;;;;;;;;;;;;;;6.78;90.56;100101.16;5085860;28;19964;-62
2023/01/08 09:37:04;;;;;;;;;;;;;;;6.77;90.77;100102.16;5079851;28;19912;-59
2023/01/08 09:39:30;;;;;;;;;;;;;;;6.75;90.76;100095.38;5088608;28;19938;-60
2023/01/08 09:41:56;;;;;;;;;;;;;;;6.72;90.81;100091.25;5076912;28;19916;-60
2023/01/08 09:44:24;;;;;;;;;;;;;;;6.69;91.01;100083.69;5088330;28;19934;-64
2023/01/08 09:46:49;;;;;;;;;;;;;;;6.70;91.24;100082.69;5080228;28;19981;-60
2023/01/08 09:49:18;;;;;;;;;;;;;;;6.68;91.49;100078.56;5085758;28;19951;-62
2023/01/08 09:51:43;;;;;;;;;;;;;;;6.67;91.56;100077.75;5087871;28;20329;-62
2023/01/08 09:54:12;;;;;;;;;;;;;;;6.67;91.47;100075.09;5080920;28;20387;-58
2023/01/08 09:56:37;;;;;;;;;;;;;;;6.67;91.51;100077.75;5098383;28;19912;-61
2023/01/08 09:59:03;;;;;;;;;;;;;;;6.68;91.70;100078.56;5087895;28;19935;-61
2023/01/08 10:01:29;;;;;;;;;;;;;;;6.72;91.91;100078.06;5084435;28;19920;-61
2023/01/08 10:04:13;;;;;;;;;;;;;;;6.76;91.95;100082.03;5088787;28;19923;-61
2023/01/08 10:06:39;;;;;;;;;;;;;;;6.81;92.09;100063.06;5080692;28;20376;-57
2023/01/08 10:09:04;;;;;;;;;;;;;;;6.83;92.04;100063.72;5075519;28;19919;-60
2023/01/08 10:11:35;;;;;;;;;;;;;;;6.84;92.39;100063.53;5090196;28;19912;-61
2023/01/08 10:14:00;;;;;;;;;;;;;;;6.84;92.15;100060.09;5077560;28;19921;-59
2023/01/08 10:16:30;;;;;;;;;;;;;;;6.84;92.20;100055.63;5076218;28;20284;-60
2023/01/08 10:18:55;;;;;;;;;;;;;;;6.87;92.00;100054.47;5077479;28;20609;-58
2023/01/08 10:21:22;;;;;;;;;;;;;;;6.87;91.92;100045.72;5079979;28;19916;-60
2023/01/08 10:23:52;;;;;;;;;;;;;;;6.88;92.29;100036.81;5085035;28;19928;-62
2023/01/08 10:26:24;;;;;;;;;;;;;;;6.89;92.27;100043.75;5081117;28;19920;-58
2023/01/08 10:28:49;;;;;;;;;;;;;;;6.90;92.18;100046.22;5079350;28;19986;-58
2023/01/08 10:31:15;;;;;;;;;;;;;;;6.91;92.61;100039.94;5080263;28;19971;-61
2023/01/08 10:33:42;;;;;;;;;;;;;;;6.91;92.54;100037.31;5085937;28;19924;-60
2023/01/08 10:36:09;;;;;;;;;;;;;;;6.96;92.49;100032.38;5079385;28;19918;-60
2023/01/08 10:38:36;;;;;;;;;;;;;;;7.05;92.90;100034.00;5084884;28;20006;-60
2023/01/08 10:41:08;;;;;;;;;;;;;;;7.17;92.90;100031.00;5090442;28;19916;-61
2023/01/08 10:43:34;;;;;;;;;;;;;;;7.25;92.58;100029.19;5077872;28;19920;-61
2023/01/08 10:46:02;;;;;;;;;;;;;;;7.27;92.18;100016.63;5078150;28;20469;-64
2023/01/08 10:48:29;;;;;;;;;;;;;;;7.38;92.22;100018.09;5081970;28;20098;-61
2023/01/08 10:51:15;;;;;;;;;;;;;;;7.48;92.42;100016.06;5084792;28;19916;-61
2023/01/08 10:53:41;;;;;;;;;;;;;;;7.62;91.53;100007.44;5081372;28;20440;-60
2023/01/08 10:56:17;;;;;;;;;;;;;;;7.72;90.76;100002.75;5080240;28;19919;-61
2023/01/08 10:58:42;;;;;;;;;;;;;;;7.85;90.49;100010.13;5083805;28;19942;-61
2023/01/08 11:01:08;;;;;;;;;;;;;;;7.95;89.94;99994.03;5078911;28;19925;-61
2023/01/08 11:03:34;;;;;;;;;;;;;;;8.03;89.80;100004.56;5080907;28;20532;-61
2023/01/08 11:06:08;;;;;;;;;;;;;;;8.13;88.97;99991.97;5084660;28;19920;-61
2023/01/08 11:08:33;;;;;;;;;;;;;;;8.24;89.17;99986.25;5082090;28;19920;-61
2023/01/08 11:11:00;;;;;;;;;;;;;;;8.36;88.74;99984.84;5083564;28;19935;-59
2023/01/08 11:13:25;;;;;;;;;;;;;;;8.47;87.92;99982.81;5093791;28;19912;-61
2023/01/08 11:16:00;;;;;;;;;;;;;;;8.52;86.92;99983.09;5089499;28;19927;-61
2023/01/08 11:18:26;;;;;;;;;;;;;;;8.59;86.32;99982.19;5085074;28;20002;-61
2023/01/08 11:20:52;;;;;;;;;;;;;;;8.64;86.02;99974.53;5085340;28;19927;-62
2023/01/08 11:23:22;;;;;;;;;;;;;;;8.69;85.76;99966.09;5083247;28;19923;-61
2023/01/08 11:26:02;;;;;;;;;;;;;;;8.74;84.85;99971.66;5086046;28;19912;-61
2023/01/08 11:28:31;;;;;;;;;;;;;;;8.80;84.50;99964.81;5086419;28;19912;-64
2023/01/08 11:31:01;;;;;;;;;;;;;;;8.80;83.50;99949.75;5084358;28;19966;-60
2023/01/08 11:33:29;;;;;;;;;;;;;;;8.89;83.49;99963.72;5077871;28;20359;-60
2023/01/08 11:36:02;;;;;;;;;;;;;;;8.93;83.11;99946.47;5082268;28;19916;-61
2023/01/08 11:38:27;;;;;;;;;;;;;;;9.02;83.46;99955.97;5080699;28;19927;-61
2023/01/08 11:40:58;;;;;;;;;;;;;;;9.11;82.73;99943.47;5085688;28;19990;-61
2023/01/08 11:43:26;;;;;;;;;;;;;;;9.16;82.28;99947.19;5077077;28;19920;-61
2023/01/08 11:46:12;;;;;;;;;;;;;;;9.22;81.62;99943.81;5084309;28;20520;-60
2023/01/08 11:49:01;;;;;;;;;;;;;;;9.25;81.17;99939.97;5079441;28;19968;-61
2023/01/08 11:52:01;;;;;;;;;;;;;;;9.30;81.13;99942.91;5087487;28;19917;-61
2023/01/08 11:54:26;;;;;;;;;;;;;;;9.35;80.93;99919.34;5007679;28;19921;-61
2023/01/08 11:57:08;;;;;;;;;;;;;;;9.37;80.92;99919.97;5067097;28;19977;-61
2023/01/08 11:59:39;;;;;;;;;;;;;;;9.40;80.50;99914.28;5084004;28;19944;-61
2023/01/08 12:02:16;;;;;;;;;;;;;;;9.46;80.41;99910.91;5078941;28;19923;-60
2023/01/08 12:04:48;;;;;;;;;;;;;;;9.54;80.30;99902.84;5082031;28;19919;-62
2023/01/08 12:07:42;;;;;;;;;;;;;;;9.59;79.65;99905.75;5078417;28;20068;-62
2023/01/08 12:10:13;;;;;;;;;;;;;;;9.71;79.21;99903.44;5073315;28;20147;-61
2023/01/08 12:12:58;;;;;;;;;;;;;;;9.83;78.35;99911.69;5081725;28;19912;-62
2023/01/08 12:15:28;;;;;;;;;;;;;;;9.78;77.51;99904.31;5081179;28;19924;-61
2023/01/08 12:18:07;;;;;;;;;;;;;;;9.81;77.92;99897.81;5082107;28;19927;-61
2023/01/08 12:20:36;;;;;;;;;;;;;;;9.70;77.65;99896.50;5081373;28;19924;-62
2023/01/08 12:23:07;;;;;;;;;;;;;;;9.70;77.71;99893.84;5077243;28;19920;-61
2023/01/08 12:25:58;;;;;;;;;;;;;;;9.79;78.17;99899.84;5078098;28;20001;-61
2023/01/08 12:28:26;;;;;;;;;;;;;;;9.75;77.77;99898.56;5073397;28;20007;-61
2023/01/08 12:30:54;;;;;;;;;;;;;;;9.62;77.46;99896.63;5079906;28;19913;-61
2023/01/08 12:33:20;;;;;;;;;;;;;;;9.54;77.74;99902.00;5084273;28;19985;-62
2023/01/08 12:35:48;;;;;;;;;;;;;;;9.56;78.30;99890.25;5083836;28;20272;-62
2023/01/08 12:38:16;;;;;;;;;;;;;;;9.63;77.92;99887.66;5081789;28;20277;-61
2023/01/08 12:40:44;;;;;;;;;;;;;;;9.71;78.31;99892.81;5085742;28;19916;-63
2023/01/08 12:43:13;;;;;;;;;;;;;;;9.86;77.90;99890.97;5079126;28;20309;-63
2023/01/08 12:45:42;;;;;;;;;;;;;;;10.06;78.12;99890.31;5088923;28;19924;-61
2023/01/08 12:48:10;;;;;;;;;;;;;;;10.04;76.52;99892.31;5076026;28;19919;-61